Portada
METAR-TAF:

METAR-TAF

Aeroports :

Aeroport Internacional de Nador

Nador, Marroc

latitud: 34-59-20N, longitud: 003-01-42W, altitud: 175 m

Observació

L'informe es va fer fa 1 hora i 1 minuts, a les 09:00 UTC
Vent 7 kt del Nord-Est, variant entre Nord/Nord-Est i Est
Temperatura 20°C
Humitat 73%
Pressió 1022 hPa
Visibilitat 10 km o més
Escasses núvols a una alçada de 1000 ft
Cel ennuvolat a una alçada de 2000 ft

METAR: GMMW 260900Z 05007KT 020V080 9999 FEW010 BKN020 20/15 Q1022 NOSIG

Hora: 11:01 (10:01 UTC)

Pronòstic

L'informe es va fer fa 5 hores i 1 minuts, a les 05:00 UTC
Pronòstic vàlid del 26 a les 06 UTC al 27 a les 12 UTC
Vent 5 kt del Nord-Est
Visibilitat 10 km o més
Cel ennuvolat a una alçada de 1000 ft
Núvols disperses a una alçada de 1700 ft
Evolucionant progressivament
l' 26 a les 08 UTC al 26 a les 11 UTC
Núvols disperses a una alçada de 1300 ft

TAF: GMMW 260500Z 2606/2712 05005KT 9999 BKN010 SCT017 BECMG 2608/2611 SCT013

Observacions i pronòstics meteorològics de més de 4000 aeroports (METAR i TAF).

Les estacions disponibles són els punts grocs i vermells al mapa.

Posi el ratolí al punt desitjat per veure el nom de l'estació.

Feu clic per veure les observacions i els pronòstics meteorològics.

Per canviar el mapa: feu clic els botons verds amb una creu de color negre per apropar; al botó verd amb un guió per allunyar la imatge; o en les fletxes verdes per a mapes adjacents.


METAR-TAF: